createdAt,value
2022-11-22T00:01:11.716Z,68.82
2022-11-22T00:03:54.261Z,68.70
2022-11-22T00:14:23.804Z,68.54
2022-11-22T00:17:03.818Z,68.69
2022-11-22T00:19:39.080Z,68.45
2022-11-22T00:22:12.827Z,68.46
2022-11-22T00:24:46.071Z,68.63
2022-11-22T00:27:12.764Z,68.72
2022-11-22T00:43:34.834Z,68.66
2022-11-22T00:46:08.036Z,68.46
2022-11-22T00:48:34.756Z,68.63
2022-11-22T00:51:14.824Z,68.39
2022-11-22T00:53:48.071Z,68.34
2022-11-22T00:56:21.864Z,68.36
2022-11-22T00:58:57.208Z,68.37
2022-11-22T01:08:21.345Z,68.24
2022-11-22T01:10:56.460Z,68.38
2022-11-22T01:13:29.812Z,68.35
2022-11-22T01:16:08.490Z,68.40
2022-11-22T01:18:48.815Z,68.29
2022-11-22T01:21:22.045Z,68.14
2022-11-22T01:23:48.704Z,68.46
2022-11-22T01:36:44.810Z,68.30
2022-11-22T01:39:24.888Z,68.18
2022-11-22T01:41:58.464Z,68.05
2022-11-22T01:44:35.828Z,68.15
2022-11-22T01:47:14.192Z,68.28
2022-11-22T02:03:40.834Z,68.01
2022-11-22T02:06:15.196Z,67.92
2022-11-22T02:08:58.535Z,67.89
2022-11-22T02:11:38.075Z,67.93
2022-11-22T02:14:18.815Z,67.99
2022-11-22T02:16:52.149Z,67.97
2022-11-22T02:29:49.787Z,67.59
2022-11-22T02:32:29.794Z,67.64
2022-11-22T02:35:18.953Z,67.55
2022-11-22T02:38:04.806Z,67.08
2022-11-22T02:40:43.505Z,67.20
2022-11-22T02:43:27.805Z,67.22
2022-11-22T02:56:38.811Z,67.29
2022-11-22T02:59:12.003Z,67.52
2022-11-22T03:01:45.836Z,67.44
2022-11-22T03:04:18.964Z,67.41
2022-11-22T03:06:45.619Z,67.03
2022-11-22T03:22:22.821Z,66.88
2022-11-22T03:24:56.260Z,66.86
2022-11-22T03:27:29.800Z,66.65
2022-11-22T03:30:04.310Z,66.68
2022-11-22T03:32:37.772Z,66.78
2022-11-22T03:35:11.834Z,67.03
2022-11-22T03:37:46.788Z,66.92
2022-11-22T03:50:53.784Z,66.98
2022-11-22T03:53:22.377Z,66.91
2022-11-22T03:56:02.801Z,66.95
2022-11-22T03:58:35.971Z,66.86
2022-11-22T04:01:14.938Z,67.00
2022-11-22T04:03:49.995Z,66.81
2022-11-22T04:16:39.749Z,66.97
2022-11-22T04:19:19.796Z,67.09
2022-11-22T04:21:52.946Z,66.74
2022-11-22T04:24:26.765Z,66.73
2022-11-22T04:27:00.005Z,66.82
2022-11-22T04:43:29.782Z,66.81
2022-11-22T04:46:02.972Z,66.84
2022-11-22T04:48:29.636Z,66.92
2022-11-22T04:51:09.756Z,66.60
2022-11-22T04:53:43.148Z,66.76
2022-11-22T04:56:16.760Z,66.49
2022-11-22T04:58:51.940Z,66.71
2022-11-22T05:08:44.788Z,66.25
2022-11-22T05:11:17.974Z,66.00
2022-11-22T05:13:51.768Z,66.22
2022-11-22T05:16:26.846Z,66.09
2022-11-22T05:19:00.550Z,66.29
2022-11-22T05:21:37.248Z,66.38
2022-11-22T05:24:11.777Z,66.34
2022-11-22T05:37:23.809Z,66.52
2022-11-22T05:39:56.927Z,66.25
2022-11-22T05:42:23.576Z,66.33
2022-11-22T05:45:03.776Z,66.23
2022-11-22T05:47:36.985Z,66.25
2022-11-22T06:03:52.760Z,65.97
2022-11-22T06:06:25.979Z,66.05
2022-11-22T06:08:52.643Z,66.02
2022-11-22T06:11:34.783Z,66.11
2022-11-22T06:14:08.812Z,66.31
2022-11-22T06:16:41.785Z,66.67
2022-11-22T06:19:16.968Z,66.63
2022-11-22T06:29:00.733Z,67.44
2022-11-22T06:31:33.989Z,67.40
2022-11-22T06:34:07.820Z,67.54
2022-11-22T06:36:42.923Z,67.84
2022-11-22T06:39:16.750Z,67.88
2022-11-22T06:41:49.916Z,67.99
2022-11-22T06:44:16.878Z,67.87
2022-11-22T06:57:13.760Z,68.17
2022-11-22T06:59:53.762Z,68.16
2022-11-22T07:02:26.919Z,68.55
2022-11-22T07:05:23.466Z,68.51
2022-11-22T07:07:56.718Z,68.43
2022-11-22T07:24:36.712Z,68.97
2022-11-22T07:27:17.791Z,68.90
2022-11-22T07:29:50.850Z,69.56
2022-11-22T07:32:17.556Z,69.42
2022-11-22T07:34:57.746Z,69.41
2022-11-22T07:37:30.995Z,69.74
2022-11-22T07:50:20.709Z,69.54
2022-11-22T07:53:03.779Z,69.68
2022-11-22T07:55:36.918Z,69.45
2022-11-22T07:58:10.748Z,69.49
2022-11-22T08:00:43.970Z,69.06
2022-11-22T08:03:13.241Z,69.04
2022-11-22T08:16:15.714Z,68.87
2022-11-22T08:18:56.728Z,68.72
2022-11-22T08:21:30.001Z,68.74
2022-11-22T08:24:04.740Z,68.72
2022-11-22T08:26:38.212Z,68.74
2022-11-22T08:29:14.657Z,68.66
2022-11-22T08:45:15.692Z,68.88
2022-11-22T08:47:58.746Z,69.22
2022-11-22T08:50:31.936Z,69.22
2022-11-22T08:53:06.759Z,69.22
2022-11-22T08:55:39.919Z,69.10
2022-11-22T08:58:06.560Z,69.18
2022-11-22T09:11:06.684Z,69.71
2022-11-22T09:13:46.723Z,69.87
2022-11-22T09:16:20.432Z,69.96
2022-11-22T09:18:54.732Z,70.26
2022-11-22T09:21:28.450Z,70.33
2022-11-22T09:24:01.716Z,70.18
2022-11-22T09:37:13.737Z,70.45
2022-11-22T09:39:48.608Z,70.57
2022-11-22T09:42:51.773Z,70.21
2022-11-22T09:46:15.021Z,70.59
2022-11-22T09:49:17.700Z,70.52
2022-11-22T10:03:03.706Z,70.86
2022-11-22T10:05:49.696Z,70.72
2022-11-22T10:08:44.726Z,70.77
2022-11-22T10:11:34.988Z,70.71
2022-11-22T10:14:35.723Z,70.63
2022-11-22T10:17:25.609Z,70.69
2022-11-22T10:30:25.696Z,70.52
2022-11-22T10:33:23.420Z,70.72
2022-11-22T10:36:21.472Z,70.60
2022-11-22T10:39:17.763Z,70.53
2022-11-22T10:42:33.647Z,70.52
2022-11-22T10:59:17.714Z,70.11
2022-11-22T11:02:07.064Z,70.13
2022-11-22T11:04:49.698Z,70.01
2022-11-22T11:07:26.205Z,69.63
2022-11-22T11:10:13.687Z,69.58
2022-11-22T11:12:56.554Z,69.47
2022-11-22T11:23:16.004Z,69.02
2022-11-22T11:25:52.069Z,68.69
2022-11-22T11:28:28.724Z,68.55
2022-11-22T11:31:08.617Z,68.56
2022-11-22T11:33:49.424Z,68.70
2022-11-22T11:36:24.505Z,68.49
2022-11-22T11:39:01.693Z,68.48
2022-11-22T11:52:24.680Z,67.89
2022-11-22T11:55:01.977Z,67.76
2022-11-22T11:57:43.692Z,67.91
2022-11-22T12:00:24.709Z,67.56
2022-11-22T12:03:07.696Z,67.79
2022-11-22T12:16:48.699Z,67.69
2022-11-22T12:19:34.573Z,67.75
2022-11-22T12:22:48.372Z,67.65
2022-11-22T12:25:33.275Z,67.74
2022-11-22T12:28:23.680Z,67.63
2022-11-22T12:31:06.541Z,67.63
2022-11-22T12:33:59.968Z,67.78
2022-11-22T12:43:52.644Z,67.98
2022-11-22T12:46:41.653Z,67.77
2022-11-22T12:49:29.987Z,67.89
2022-11-22T12:52:23.692Z,67.79
2022-11-22T12:55:06.117Z,67.94
2022-11-22T12:57:56.662Z,68.00
2022-11-22T13:11:19.661Z,68.07
2022-11-22T13:14:04.562Z,67.93
2022-11-22T13:16:44.724Z,68.15
2022-11-22T13:19:25.280Z,67.98
2022-11-22T13:22:21.684Z,67.88
2022-11-22T13:39:04.704Z,68.19
2022-11-22T13:41:57.664Z,68.29
2022-11-22T13:44:41.558Z,68.30
2022-11-22T13:47:47.664Z,68.22
2022-11-22T13:50:58.287Z,68.22
2022-11-22T13:53:41.677Z,68.11
2022-11-22T14:03:48.623Z,68.04
2022-11-22T14:06:34.672Z,68.12
2022-11-22T14:09:25.044Z,67.98
2022-11-22T14:12:39.725Z,68.04
2022-11-22T14:15:31.117Z,67.90
2022-11-22T14:18:45.702Z,67.93
2022-11-22T14:32:08.675Z,67.82
2022-11-22T14:35:27.773Z,67.74
2022-11-22T14:38:37.769Z,67.92
2022-11-22T14:41:42.187Z,67.68
2022-11-22T14:44:30.721Z,67.85
2022-11-22T14:57:43.648Z,67.78
2022-11-22T15:00:21.437Z,67.55
2022-11-22T15:03:45.685Z,67.74
2022-11-22T15:09:20.794Z,67.64
2022-11-22T15:10:33.775Z,67.58
2022-11-22T15:13:41.795Z,67.67
2022-11-22T15:58:31.443Z,67.80
2022-11-22T16:01:19.904Z,67.78
2022-11-22T16:03:58.030Z,67.54
2022-11-22T16:17:33.603Z,67.74
2022-11-22T16:20:40.615Z,67.73
2022-11-22T16:23:22.944Z,67.71
2022-11-22T16:26:06.640Z,67.80
2022-11-22T16:28:39.883Z,67.63
2022-11-22T16:31:27.641Z,67.73
2022-11-22T16:34:09.849Z,67.66
2022-11-22T16:44:17.160Z,67.55
2022-11-22T16:46:50.796Z,67.86
2022-11-22T16:49:28.896Z,67.62
2022-11-22T16:52:03.000Z,67.57
2022-11-22T16:54:38.639Z,67.83
2022-11-22T16:57:14.188Z,67.74
2022-11-22T17:12:45.632Z,67.70
2022-11-22T17:15:24.129Z,67.78
2022-11-22T17:18:04.612Z,67.74
2022-11-22T17:20:38.063Z,67.71
2022-11-22T17:23:18.629Z,67.70
2022-11-22T17:39:57.600Z,68.01
2022-11-22T17:42:41.162Z,67.97
2022-11-22T17:45:15.037Z,67.71
2022-11-22T17:47:49.369Z,67.86
2022-11-22T17:50:22.817Z,67.71
2022-11-22T17:52:57.636Z,67.96
2022-11-22T18:06:10.623Z,67.78
2022-11-22T18:08:47.242Z,67.72
2022-11-22T18:11:27.616Z,67.86
2022-11-22T18:14:00.772Z,67.99
2022-11-22T18:16:27.445Z,67.93
2022-11-22T18:19:07.636Z,67.78
2022-11-22T18:32:19.608Z,67.91
2022-11-22T18:34:52.995Z,67.89
2022-11-22T18:37:29.663Z,67.84
2022-11-22T18:40:04.424Z,68.02
2022-11-22T18:42:37.594Z,67.99
2022-11-22T18:59:17.579Z,67.74
2022-11-22T19:01:57.590Z,67.78
2022-11-22T19:04:31.239Z,67.54
2022-11-22T19:07:04.626Z,67.55
2022-11-22T19:09:37.924Z,67.71
2022-11-22T19:12:11.608Z,67.53
2022-11-22T19:14:46.704Z,67.56
2022-11-22T19:26:57.568Z,67.23
2022-11-22T19:29:37.597Z,67.14
2022-11-22T19:32:12.764Z,67.11
2022-11-22T19:34:45.653Z,67.15
2022-11-22T19:37:18.859Z,67.12
2022-11-22T19:39:45.570Z,67.14
2022-11-22T19:53:01.560Z,67.10
2022-11-22T19:55:45.548Z,67.12
2022-11-22T19:58:18.922Z,67.17
2022-11-22T20:00:52.671Z,67.27
2022-11-22T20:03:25.800Z,67.28
2022-11-22T20:19:40.587Z,67.09
2022-11-22T20:22:13.836Z,67.13
2022-11-22T20:24:40.564Z,67.05
2022-11-22T20:27:24.648Z,67.20
2022-11-22T20:29:57.764Z,67.11
2022-11-22T20:32:30.608Z,67.17
2022-11-22T20:45:42.585Z,67.70
2022-11-22T20:48:15.857Z,67.82
2022-11-22T20:50:57.841Z,67.72
2022-11-22T20:53:30.972Z,67.57
2022-11-22T20:56:05.593Z,67.81
2022-11-22T20:58:39.450Z,67.77
2022-11-22T21:11:53.543Z,67.85
2022-11-22T21:14:33.701Z,67.88
2022-11-22T21:17:30.605Z,67.68
2022-11-22T21:20:06.567Z,67.75
2022-11-22T21:22:40.574Z,67.83
2022-11-22T21:25:15.573Z,67.72
2022-11-22T21:27:51.111Z,67.71
2022-11-22T21:40:39.530Z,67.87
2022-11-22T21:43:21.564Z,67.94
2022-11-22T21:45:55.994Z,68.05
2022-11-22T21:48:30.629Z,68.00
2022-11-22T21:51:03.789Z,67.80
2022-11-22T21:53:38.640Z,67.96
2022-11-22T22:06:50.563Z,67.87
2022-11-22T22:09:23.836Z,67.91
2022-11-22T22:11:50.486Z,67.97
2022-11-22T22:14:30.600Z,68.00
2022-11-22T22:17:03.876Z,67.89
2022-11-22T22:19:37.563Z,67.97
2022-11-22T22:32:49.575Z,68.20
2022-11-22T22:35:22.810Z,68.07
2022-11-22T22:37:49.465Z,68.04
2022-11-22T22:40:29.556Z,68.27
2022-11-22T22:43:02.708Z,68.28
2022-11-22T22:45:29.425Z,68.17
2022-11-22T22:48:11.583Z,68.40
2022-11-22T22:58:42.516Z,68.28
2022-11-22T23:01:25.544Z,68.29
2022-11-22T23:04:02.075Z,68.40
2022-11-22T23:06:45.547Z,68.38
2022-11-22T23:09:18.987Z,68.27
2022-11-22T23:11:52.569Z,68.27
2022-11-22T23:14:28.157Z,68.34
2022-11-22T23:27:18.519Z,68.47
2022-11-22T23:29:58.557Z,68.52
2022-11-22T23:32:32.024Z,68.59
2022-11-22T23:35:05.592Z,68.54
2022-11-22T23:37:38.750Z,68.67
2022-11-22T23:53:53.533Z,69.01
2022-11-22T23:56:29.728Z,68.88
2022-11-22T23:59:05.078Z,68.84
